sensor_id;sensor_type;location;lat;lon;timestamp;P1;durP1;ratioP1;P2;durP2;ratioP2
4420;SDS011;11824;51.178;13.546;2024-03-02T00:01:58;94.97;;;45.10;;
4420;SDS011;11824;51.178;13.546;2024-03-02T00:04:27;99.00;;;45.67;;
4420;SDS011;11824;51.178;13.546;2024-03-02T00:06:56;95.10;;;42.77;;
4420;SDS011;11824;51.178;13.546;2024-03-02T00:09:25;111.00;;;48.70;;
4420;SDS011;11824;51.178;13.546;2024-03-02T00:11:55;86.20;;;43.23;;
4420;SDS011;11824;51.178;13.546;2024-03-02T00:14:24;99.83;;;49.07;;
4420;SDS011;11824;51.178;13.546;2024-03-02T00:16:53;102.67;;;44.77;;
4420;SDS011;11824;51.178;13.546;2024-03-02T00:19:23;104.03;;;47.47;;
4420;SDS011;11824;51.178;13.546;2024-03-02T00:21:52;90.67;;;45.70;;
4420;SDS011;11824;51.178;13.546;2024-03-02T00:24:21;102.67;;;47.17;;
4420;SDS011;11824;51.178;13.546;2024-03-02T00:27:00;90.17;;;45.80;;
4420;SDS011;11824;51.178;13.546;2024-03-02T00:29:31;101.37;;;42.50;;
4420;SDS011;11824;51.178;13.546;2024-03-02T00:32:00;108.93;;;45.57;;
4420;SDS011;11824;51.178;13.546;2024-03-02T00:34:29;108.93;;;45.00;;
4420;SDS011;11824;51.178;13.546;2024-03-02T00:36:58;93.90;;;44.90;;
4420;SDS011;11824;51.178;13.546;2024-03-02T00:39:27;85.77;;;42.53;;
4420;SDS011;11824;51.178;13.546;2024-03-02T00:41:57;103.50;;;41.03;;
4420;SDS011;11824;51.178;13.546;2024-03-02T00:44:27;92.90;;;43.80;;
4420;SDS011;11824;51.178;13.546;2024-03-02T00:47:02;85.67;;;41.23;;
4420;SDS011;11824;51.178;13.546;2024-03-02T00:49:31;90.77;;;43.37;;
4420;SDS011;11824;51.178;13.546;2024-03-02T00:52:01;79.67;;;41.00;;
4420;SDS011;11824;51.178;13.546;2024-03-02T00:54:31;86.10;;;41.33;;
4420;SDS011;11824;51.178;13.546;2024-03-02T00:57:02;81.83;;;41.87;;
4420;SDS011;11824;51.178;13.546;2024-03-02T00:59:31;81.13;;;40.27;;
4420;SDS011;11824;51.178;13.546;2024-03-02T01:02:00;89.57;;;41.93;;
4420;SDS011;11824;51.178;13.546;2024-03-02T01:04:29;92.47;;;43.90;;
4420;SDS011;11824;51.178;13.546;2024-03-02T01:06:58;91.20;;;41.20;;
4420;SDS011;11824;51.178;13.546;2024-03-02T01:09:27;91.80;;;41.00;;
4420;SDS011;11824;51.178;13.546;2024-03-02T01:11:56;85.03;;;40.90;;
4420;SDS011;11824;51.178;13.546;2024-03-02T01:14:26;90.50;;;41.37;;
4420;SDS011;11824;51.178;13.546;2024-03-02T01:16:55;79.63;;;39.83;;
4420;SDS011;11824;51.178;13.546;2024-03-02T01:19:24;81.90;;;39.80;;
4420;SDS011;11824;51.178;13.546;2024-03-02T01:21:53;77.10;;;40.90;;
4420;SDS011;11824;51.178;13.546;2024-03-02T01:24:22;102.53;;;42.80;;
4420;SDS011;11824;51.178;13.546;2024-03-02T01:26:51;94.27;;;41.37;;
4420;SDS011;11824;51.178;13.546;2024-03-02T01:29:20;95.73;;;44.27;;
4420;SDS011;11824;51.178;13.546;2024-03-02T01:31:50;101.03;;;46.43;;
4420;SDS011;11824;51.178;13.546;2024-03-02T01:34:20;82.57;;;43.00;;
4420;SDS011;11824;51.178;13.546;2024-03-02T01:36:48;103.37;;;46.93;;
4420;SDS011;11824;51.178;13.546;2024-03-02T01:39:17;89.50;;;44.97;;
4420;SDS011;11824;51.178;13.546;2024-03-02T01:41:46;117.30;;;50.93;;
4420;SDS011;11824;51.178;13.546;2024-03-02T01:44:15;114.07;;;48.70;;
4420;SDS011;11824;51.178;13.546;2024-03-02T01:46:44;97.90;;;46.30;;
4420;SDS011;11824;51.178;13.546;2024-03-02T01:49:14;88.93;;;43.40;;
4420;SDS011;11824;51.178;13.546;2024-03-02T01:51:43;96.47;;;43.47;;
4420;SDS011;11824;51.178;13.546;2024-03-02T01:54:12;91.47;;;46.70;;
4420;SDS011;11824;51.178;13.546;2024-03-02T01:56:41;98.20;;;45.60;;
4420;SDS011;11824;51.178;13.546;2024-03-02T01:59:10;101.77;;;43.60;;
4420;SDS011;11824;51.178;13.546;2024-03-02T02:01:39;90.77;;;43.20;;
4420;SDS011;11824;51.178;13.546;2024-03-02T02:04:08;95.20;;;44.03;;
4420;SDS011;11824;51.178;13.546;2024-03-02T02:06:38;93.23;;;44.27;;
4420;SDS011;11824;51.178;13.546;2024-03-02T02:09:08;106.60;;;42.07;;
4420;SDS011;11824;51.178;13.546;2024-03-02T02:11:36;93.60;;;43.00;;
4420;SDS011;11824;51.178;13.546;2024-03-02T02:14:06;90.20;;;41.37;;
4420;SDS011;11824;51.178;13.546;2024-03-02T02:16:34;92.67;;;43.67;;
4420;SDS011;11824;51.178;13.546;2024-03-02T02:19:03;96.03;;;43.17;;
4420;SDS011;11824;51.178;13.546;2024-03-02T02:21:34;95.07;;;41.10;;
4420;SDS011;11824;51.178;13.546;2024-03-02T02:24:03;84.87;;;41.33;;
4420;SDS011;11824;51.178;13.546;2024-03-02T02:26:32;106.10;;;45.47;;
4420;SDS011;11824;51.178;13.546;2024-03-02T02:29:01;96.70;;;45.80;;
4420;SDS011;11824;51.178;13.546;2024-03-02T02:31:36;111.00;;;45.60;;
4420;SDS011;11824;51.178;13.546;2024-03-02T02:34:05;105.03;;;44.40;;
4420;SDS011;11824;51.178;13.546;2024-03-02T02:36:38;106.50;;;44.90;;
4420;SDS011;11824;51.178;13.546;2024-03-02T02:39:08;105.60;;;47.07;;
4420;SDS011;11824;51.178;13.546;2024-03-02T02:41:38;101.30;;;45.17;;
4420;SDS011;11824;51.178;13.546;2024-03-02T02:44:07;98.90;;;43.70;;
4420;SDS011;11824;51.178;13.546;2024-03-02T02:46:37;110.43;;;45.57;;
4420;SDS011;11824;51.178;13.546;2024-03-02T02:49:06;105.30;;;44.77;;
4420;SDS011;11824;51.178;13.546;2024-03-02T02:51:35;98.13;;;47.53;;
4420;SDS011;11824;51.178;13.546;2024-03-02T02:54:05;99.00;;;44.73;;
4420;SDS011;11824;51.178;13.546;2024-03-02T02:56:34;114.03;;;46.27;;
4420;SDS011;11824;51.178;13.546;2024-03-02T02:59:03;109.20;;;43.87;;
4420;SDS011;11824;51.178;13.546;2024-03-02T03:01:32;95.30;;;46.53;;
4420;SDS011;11824;51.178;13.546;2024-03-02T03:04:01;109.23;;;45.00;;
4420;SDS011;11824;51.178;13.546;2024-03-02T03:06:30;98.30;;;41.87;;
4420;SDS011;11824;51.178;13.546;2024-03-02T03:09:00;94.43;;;43.63;;
4420;SDS011;11824;51.178;13.546;2024-03-02T03:11:30;101.37;;;43.93;;
4420;SDS011;11824;51.178;13.546;2024-03-02T03:13:59;87.67;;;43.50;;
4420;SDS011;11824;51.178;13.546;2024-03-02T03:16:28;80.70;;;39.17;;
4420;SDS011;11824;51.178;13.546;2024-03-02T03:18:56;83.83;;;39.93;;
4420;SDS011;11824;51.178;13.546;2024-03-02T03:21:25;95.93;;;41.23;;
4420;SDS011;11824;51.178;13.546;2024-03-02T03:23:54;87.40;;;41.70;;
4420;SDS011;11824;51.178;13.546;2024-03-02T03:26:24;91.40;;;41.23;;
4420;SDS011;11824;51.178;13.546;2024-03-02T03:28:53;90.60;;;44.00;;
4420;SDS011;11824;51.178;13.546;2024-03-02T03:31:22;102.00;;;46.53;;
4420;SDS011;11824;51.178;13.546;2024-03-02T03:33:50;98.50;;;43.53;;
4420;SDS011;11824;51.178;13.546;2024-03-02T03:36:19;107.20;;;47.17;;
4420;SDS011;11824;51.178;13.546;2024-03-02T03:38:48;108.53;;;46.50;;
4420;SDS011;11824;51.178;13.546;2024-03-02T03:41:17;101.40;;;45.03;;
4420;SDS011;11824;51.178;13.546;2024-03-02T03:43:47;87.83;;;44.00;;
4420;SDS011;11824;51.178;13.546;2024-03-02T03:46:15;92.07;;;44.17;;
4420;SDS011;11824;51.178;13.546;2024-03-02T03:48:44;97.23;;;41.80;;
4420;SDS011;11824;51.178;13.546;2024-03-02T03:51:13;112.13;;;45.87;;
4420;SDS011;11824;51.178;13.546;2024-03-02T03:53:42;106.07;;;46.27;;
4420;SDS011;11824;51.178;13.546;2024-03-02T03:56:10;117.27;;;46.13;;
4420;SDS011;11824;51.178;13.546;2024-03-02T03:58:39;106.17;;;44.70;;
4420;SDS011;11824;51.178;13.546;2024-03-02T04:01:10;100.27;;;46.17;;
4420;SDS011;11824;51.178;13.546;2024-03-02T04:03:38;111.63;;;49.73;;
4420;SDS011;11824;51.178;13.546;2024-03-02T04:06:07;112.83;;;46.90;;
4420;SDS011;11824;51.178;13.546;2024-03-02T04:08:36;97.90;;;46.87;;
4420;SDS011;11824;51.178;13.546;2024-03-02T04:11:05;114.80;;;50.00;;
4420;SDS011;11824;51.178;13.546;2024-03-02T04:13:34;106.40;;;48.63;;
4420;SDS011;11824;51.178;13.546;2024-03-02T04:16:03;114.87;;;50.53;;
4420;SDS011;11824;51.178;13.546;2024-03-02T04:18:33;145.63;;;59.30;;
4420;SDS011;11824;51.178;13.546;2024-03-02T04:21:02;113.83;;;49.17;;
4420;SDS011;11824;51.178;13.546;2024-03-02T04:23:31;248.27;;;102.70;;
4420;SDS011;11824;51.178;13.546;2024-03-02T04:26:00;183.07;;;78.43;;
4420;SDS011;11824;51.178;13.546;2024-03-02T04:28:29;158.57;;;65.13;;
4420;SDS011;11824;51.178;13.546;2024-03-02T04:30:58;116.43;;;50.70;;
4420;SDS011;11824;51.178;13.546;2024-03-02T04:33:26;112.60;;;48.67;;
4420;SDS011;11824;51.178;13.546;2024-03-02T04:35:57;103.40;;;47.57;;
4420;SDS011;11824;51.178;13.546;2024-03-02T04:38:25;113.90;;;47.43;;
4420;SDS011;11824;51.178;13.546;2024-03-02T04:40:55;113.67;;;53.40;;
4420;SDS011;11824;51.178;13.546;2024-03-02T04:43:23;124.10;;;54.00;;
4420;SDS011;11824;51.178;13.546;2024-03-02T04:45:52;110.30;;;49.97;;
4420;SDS011;11824;51.178;13.546;2024-03-02T04:48:21;115.93;;;51.13;;
4420;SDS011;11824;51.178;13.546;2024-03-02T04:50:50;136.83;;;56.50;;
4420;SDS011;11824;51.178;13.546;2024-03-02T04:53:20;148.43;;;57.07;;
4420;SDS011;11824;51.178;13.546;2024-03-02T04:55:49;120.33;;;48.70;;
4420;SDS011;11824;51.178;13.546;2024-03-02T04:58:53;108.67;;;46.47;;
4420;SDS011;11824;51.178;13.546;2024-03-02T05:01:22;191.50;;;86.90;;
4420;SDS011;11824;51.178;13.546;2024-03-02T05:03:51;401.40;;;186.33;;
4420;SDS011;11824;51.178;13.546;2024-03-02T05:06:20;157.47;;;71.20;;
4420;SDS011;11824;51.178;13.546;2024-03-02T05:08:51;149.07;;;62.13;;
4420;SDS011;11824;51.178;13.546;2024-03-02T05:11:20;166.93;;;81.57;;
4420;SDS011;11824;51.178;13.546;2024-03-02T05:14:20;134.93;;;61.37;;
4420;SDS011;11824;51.178;13.546;2024-03-02T05:16:49;96.33;;;46.63;;
4420;SDS011;11824;51.178;13.546;2024-03-02T05:19:18;123.40;;;44.10;;
4420;SDS011;11824;51.178;13.546;2024-03-02T05:21:47;108.37;;;46.50;;
4420;SDS011;11824;51.178;13.546;2024-03-02T05:24:17;102.40;;;45.33;;
4420;SDS011;11824;51.178;13.546;2024-03-02T05:26:46;87.00;;;40.90;;
4420;SDS011;11824;51.178;13.546;2024-03-02T05:29:15;101.83;;;40.60;;
4420;SDS011;11824;51.178;13.546;2024-03-02T05:31:44;95.40;;;41.03;;
4420;SDS011;11824;51.178;13.546;2024-03-02T05:34:12;98.20;;;41.40;;
4420;SDS011;11824;51.178;13.546;2024-03-02T05:36:41;98.00;;;40.70;;
4420;SDS011;11824;51.178;13.546;2024-03-02T05:39:10;96.07;;;40.93;;
4420;SDS011;11824;51.178;13.546;2024-03-02T05:41:40;103.70;;;43.87;;
4420;SDS011;11824;51.178;13.546;2024-03-02T05:44:09;89.03;;;39.60;;
4420;SDS011;11824;51.178;13.546;2024-03-02T05:46:38;98.90;;;42.53;;
4420;SDS011;11824;51.178;13.546;2024-03-02T05:49:07;101.03;;;44.30;;
4420;SDS011;11824;51.178;13.546;2024-03-02T05:51:36;96.57;;;42.30;;
4420;SDS011;11824;51.178;13.546;2024-03-02T05:54:05;114.90;;;42.93;;
4420;SDS011;11824;51.178;13.546;2024-03-02T05:56:33;96.57;;;44.73;;
4420;SDS011;11824;51.178;13.546;2024-03-02T05:59:04;89.63;;;41.50;;
4420;SDS011;11824;51.178;13.546;2024-03-02T06:01:39;98.83;;;42.20;;
4420;SDS011;11824;51.178;13.546;2024-03-02T06:04:09;103.33;;;44.60;;
4420;SDS011;11824;51.178;13.546;2024-03-02T06:06:38;108.77;;;43.80;;
4420;SDS011;11824;51.178;13.546;2024-03-02T06:09:07;102.27;;;42.40;;
4420;SDS011;11824;51.178;13.546;2024-03-02T06:11:39;101.13;;;46.73;;
4420;SDS011;11824;51.178;13.546;2024-03-02T06:14:10;145.40;;;55.27;;
4420;SDS011;11824;51.178;13.546;2024-03-02T06:16:38;316.13;;;124.47;;
4420;SDS011;11824;51.178;13.546;2024-03-02T06:19:07;119.60;;;48.00;;
4420;SDS011;11824;51.178;13.546;2024-03-02T06:21:36;107.90;;;43.17;;
4420;SDS011;11824;51.178;13.546;2024-03-02T06:24:05;109.83;;;44.70;;
4420;SDS011;11824;51.178;13.546;2024-03-02T06:26:34;81.33;;;38.80;;
4420;SDS011;11824;51.178;13.546;2024-03-02T06:29:03;122.10;;;48.17;;
4420;SDS011;11824;51.178;13.546;2024-03-02T06:31:33;155.43;;;60.67;;
4420;SDS011;11824;51.178;13.546;2024-03-02T06:34:02;129.00;;;57.07;;
4420;SDS011;11824;51.178;13.546;2024-03-02T06:36:31;126.47;;;56.97;;
4420;SDS011;11824;51.178;13.546;2024-03-02T06:39:00;147.27;;;57.63;;
4420;SDS011;11824;51.178;13.546;2024-03-02T06:41:29;147.70;;;57.33;;
4420;SDS011;11824;51.178;13.546;2024-03-02T06:43:58;147.67;;;59.53;;
4420;SDS011;11824;51.178;13.546;2024-03-02T06:46:27;133.13;;;53.23;;
4420;SDS011;11824;51.178;13.546;2024-03-02T06:48:57;138.10;;;57.37;;
4420;SDS011;11824;51.178;13.546;2024-03-02T06:51:26;104.57;;;49.17;;
4420;SDS011;11824;51.178;13.546;2024-03-02T06:53:55;110.30;;;49.20;;
4420;SDS011;11824;51.178;13.546;2024-03-02T06:56:23;97.57;;;47.00;;
4420;SDS011;11824;51.178;13.546;2024-03-02T06:58:52;114.63;;;46.10;;
4420;SDS011;11824;51.178;13.546;2024-03-02T07:01:21;96.73;;;43.87;;
4420;SDS011;11824;51.178;13.546;2024-03-02T07:03:52;119.37;;;46.93;;
4420;SDS011;11824;51.178;13.546;2024-03-02T07:06:22;465.70;;;232.70;;
4420;SDS011;11824;51.178;13.546;2024-03-02T07:08:51;193.57;;;90.93;;
4420;SDS011;11824;51.178;13.546;2024-03-02T07:11:20;399.37;;;192.53;;
4420;SDS011;11824;51.178;13.546;2024-03-02T07:13:49;382.27;;;165.53;;
4420;SDS011;11824;51.178;13.546;2024-03-02T07:16:18;335.40;;;152.27;;
4420;SDS011;11824;51.178;13.546;2024-03-02T07:18:54;462.57;;;243.53;;
4420;SDS011;11824;51.178;13.546;2024-03-02T07:21:25;379.07;;;173.43;;
4420;SDS011;11824;51.178;13.546;2024-03-02T07:23:54;565.83;;;340.37;;
4420;SDS011;11824;51.178;13.546;2024-03-02T07:26:22;375.57;;;178.93;;
4420;SDS011;11824;51.178;13.546;2024-03-02T07:28:54;345.57;;;160.93;;
4420;SDS011;11824;51.178;13.546;2024-03-02T07:31:23;213.07;;;96.57;;
4420;SDS011;11824;51.178;13.546;2024-03-02T07:33:51;172.57;;;80.33;;
4420;SDS011;11824;51.178;13.546;2024-03-02T07:36:20;227.87;;;98.90;;
4420;SDS011;11824;51.178;13.546;2024-03-02T07:38:50;205.83;;;96.07;;
4420;SDS011;11824;51.178;13.546;2024-03-02T07:41:20;189.70;;;87.67;;
4420;SDS011;11824;51.178;13.546;2024-03-02T07:43:49;165.37;;;76.90;;
4420;SDS011;11824;51.178;13.546;2024-03-02T07:46:18;123.80;;;58.00;;
4420;SDS011;11824;51.178;13.546;2024-03-02T07:48:47;166.73;;;69.67;;
4420;SDS011;11824;51.178;13.546;2024-03-02T07:51:18;128.67;;;59.10;;
4420;SDS011;11824;51.178;13.546;2024-03-02T07:53:47;140.67;;;70.50;;
4420;SDS011;11824;51.178;13.546;2024-03-02T07:56:17;171.23;;;70.33;;
4420;SDS011;11824;51.178;13.546;2024-03-02T07:58:48;144.00;;;65.00;;
4420;SDS011;11824;51.178;13.546;2024-03-02T08:01:17;127.37;;;61.73;;
4420;SDS011;11824;51.178;13.546;2024-03-02T08:03:46;125.87;;;59.97;;
4420;SDS011;11824;51.178;13.546;2024-03-02T08:06:16;120.90;;;57.17;;
4420;SDS011;11824;51.178;13.546;2024-03-02T08:08:47;124.13;;;56.57;;
4420;SDS011;11824;51.178;13.546;2024-03-02T08:11:17;117.20;;;53.07;;
4420;SDS011;11824;51.178;13.546;2024-03-02T08:13:46;102.40;;;50.53;;
4420;SDS011;11824;51.178;13.546;2024-03-02T08:16:15;97.13;;;50.90;;
4420;SDS011;11824;51.178;13.546;2024-03-02T08:18:46;97.67;;;48.30;;
4420;SDS011;11824;51.178;13.546;2024-03-02T08:21:15;100.93;;;47.50;;
4420;SDS011;11824;51.178;13.546;2024-03-02T08:23:44;92.80;;;47.07;;
4420;SDS011;11824;51.178;13.546;2024-03-02T08:26:13;88.20;;;47.07;;
4420;SDS011;11824;51.178;13.546;2024-03-02T08:28:43;100.33;;;48.43;;
4420;SDS011;11824;51.178;13.546;2024-03-02T08:31:12;99.83;;;49.67;;
4420;SDS011;11824;51.178;13.546;2024-03-02T08:33:41;98.07;;;49.17;;
4420;SDS011;11824;51.178;13.546;2024-03-02T08:36:10;109.40;;;53.73;;
4420;SDS011;11824;51.178;13.546;2024-03-02T08:38:39;96.00;;;49.77;;
4420;SDS011;11824;51.178;13.546;2024-03-02T08:41:08;95.43;;;47.37;;
4420;SDS011;11824;51.178;13.546;2024-03-02T08:43:40;97.73;;;47.97;;
4420;SDS011;11824;51.178;13.546;2024-03-02T08:46:11;92.90;;;47.70;;
4420;SDS011;11824;51.178;13.546;2024-03-02T08:48:39;88.80;;;44.23;;
4420;SDS011;11824;51.178;13.546;2024-03-02T08:51:09;91.60;;;46.67;;
4420;SDS011;11824;51.178;13.546;2024-03-02T08:53:38;93.47;;;46.70;;
4420;SDS011;11824;51.178;13.546;2024-03-02T08:56:07;94.07;;;46.23;;
4420;SDS011;11824;51.178;13.546;2024-03-02T08:58:36;92.57;;;48.87;;
4420;SDS011;11824;51.178;13.546;2024-03-02T09:01:04;87.63;;;46.57;;
4420;SDS011;11824;51.178;13.546;2024-03-02T09:03:36;80.43;;;42.30;;
4420;SDS011;11824;51.178;13.546;2024-03-02T09:06:04;84.73;;;43.33;;
4420;SDS011;11824;51.178;13.546;2024-03-02T09:08:33;81.20;;;45.67;;
4420;SDS011;11824;51.178;13.546;2024-03-02T09:11:02;82.57;;;43.20;;
4420;SDS011;11824;51.178;13.546;2024-03-02T09:13:32;87.20;;;45.30;;
4420;SDS011;11824;51.178;13.546;2024-03-02T09:16:01;90.03;;;45.10;;
4420;SDS011;11824;51.178;13.546;2024-03-02T09:18:30;86.93;;;43.67;;
4420;SDS011;11824;51.178;13.546;2024-03-02T09:21:00;86.67;;;46.93;;
4420;SDS011;11824;51.178;13.546;2024-03-02T09:23:30;90.93;;;44.83;;
4420;SDS011;11824;51.178;13.546;2024-03-02T09:25:59;88.33;;;45.07;;
4420;SDS011;11824;51.178;13.546;2024-03-02T09:28:29;88.27;;;44.23;;
4420;SDS011;11824;51.178;13.546;2024-03-02T09:30:58;90.17;;;44.50;;
4420;SDS011;11824;51.178;13.546;2024-03-02T09:33:28;85.63;;;45.37;;
4420;SDS011;11824;51.178;13.546;2024-03-02T09:35:57;78.73;;;43.13;;
4420;SDS011;11824;51.178;13.546;2024-03-02T09:38:28;93.30;;;49.37;;
4420;SDS011;11824;51.178;13.546;2024-03-02T09:40:56;89.03;;;51.37;;
4420;SDS011;11824;51.178;13.546;2024-03-02T09:43:25;101.67;;;55.97;;
4420;SDS011;11824;51.178;13.546;2024-03-02T09:45:54;95.60;;;52.33;;
4420;SDS011;11824;51.178;13.546;2024-03-02T09:48:23;83.60;;;42.73;;
4420;SDS011;11824;51.178;13.546;2024-03-02T09:50:52;68.53;;;38.10;;
4420;SDS011;11824;51.178;13.546;2024-03-02T09:53:21;68.37;;;34.70;;
4420;SDS011;11824;51.178;13.546;2024-03-02T09:55:52;54.93;;;29.50;;
4420;SDS011;11824;51.178;13.546;2024-03-02T09:58:22;51.97;;;27.47;;
4420;SDS011;11824;51.178;13.546;2024-03-02T10:00:50;45.43;;;26.10;;
4420;SDS011;11824;51.178;13.546;2024-03-02T10:03:19;43.30;;;23.60;;
4420;SDS011;11824;51.178;13.546;2024-03-02T10:05:50;40.17;;;23.90;;
4420;SDS011;11824;51.178;13.546;2024-03-02T10:08:19;49.67;;;26.67;;
4420;SDS011;11824;51.178;13.546;2024-03-02T10:10:48;48.53;;;25.90;;
4420;SDS011;11824;51.178;13.546;2024-03-02T10:13:18;45.67;;;25.00;;
4420;SDS011;11824;51.178;13.546;2024-03-02T10:15:47;50.03;;;24.70;;
4420;SDS011;11824;51.178;13.546;2024-03-02T10:18:18;54.50;;;23.80;;
4420;SDS011;11824;51.178;13.546;2024-03-02T10:20:55;43.63;;;24.80;;
4420;SDS011;11824;51.178;13.546;2024-03-02T10:23:41;42.30;;;23.20;;
4420;SDS011;11824;51.178;13.546;2024-03-02T10:26:11;37.97;;;21.23;;
4420;SDS011;11824;51.178;13.546;2024-03-02T10:28:47;35.00;;;19.00;;
4420;SDS011;11824;51.178;13.546;2024-03-02T10:31:17;34.87;;;22.37;;
4420;SDS011;11824;51.178;13.546;2024-03-02T10:33:47;35.63;;;18.23;;
4420;SDS011;11824;51.178;13.546;2024-03-02T10:36:16;32.83;;;18.53;;
4420;SDS011;11824;51.178;13.546;2024-03-02T10:38:45;29.00;;;17.13;;
4420;SDS011;11824;51.178;13.546;2024-03-02T10:41:16;36.57;;;19.27;;
4420;SDS011;11824;51.178;13.546;2024-03-02T10:43:47;28.20;;;16.97;;
4420;SDS011;11824;51.178;13.546;2024-03-02T10:46:15;30.97;;;19.13;;
4420;SDS011;11824;51.178;13.546;2024-03-02T10:48:47;33.07;;;18.83;;
4420;SDS011;11824;51.178;13.546;2024-03-02T10:51:15;32.27;;;20.50;;
4420;SDS011;11824;51.178;13.546;2024-03-02T10:53:44;28.90;;;17.23;;
4420;SDS011;11824;51.178;13.546;2024-03-02T10:56:14;33.37;;;18.47;;
4420;SDS011;11824;51.178;13.546;2024-03-02T10:58:52;25.80;;;14.50;;
4420;SDS011;11824;51.178;13.546;2024-03-02T11:01:29;25.57;;;15.97;;
4420;SDS011;11824;51.178;13.546;2024-03-02T11:03:59;25.77;;;17.00;;
4420;SDS011;11824;51.178;13.546;2024-03-02T11:06:31;28.23;;;16.20;;
4420;SDS011;11824;51.178;13.546;2024-03-02T11:09:05;28.87;;;15.57;;
4420;SDS011;11824;51.178;13.546;2024-03-02T11:11:37;24.93;;;15.60;;
4420;SDS011;11824;51.178;13.546;2024-03-02T11:14:13;26.20;;;16.60;;
4420;SDS011;11824;51.178;13.546;2024-03-02T11:16:44;71.50;;;17.70;;
4420;SDS011;11824;51.178;13.546;2024-03-02T11:19:14;32.03;;;16.10;;
4420;SDS011;11824;51.178;13.546;2024-03-02T11:21:44;42.00;;;18.53;;
4420;SDS011;11824;51.178;13.546;2024-03-02T11:27:04;36.40;;;20.00;;
4420;SDS011;11824;51.178;13.546;2024-03-02T11:29:45;28.37;;;16.43;;
4420;SDS011;11824;51.178;13.546;2024-03-02T11:32:19;25.33;;;16.90;;
4420;SDS011;11824;51.178;13.546;2024-03-02T11:34:50;38.80;;;18.27;;
4420;SDS011;11824;51.178;13.546;2024-03-02T11:37:19;32.67;;;17.30;;
4420;SDS011;11824;51.178;13.546;2024-03-02T11:39:49;27.30;;;17.97;;
4420;SDS011;11824;51.178;13.546;2024-03-02T11:42:18;28.60;;;16.80;;
4420;SDS011;11824;51.178;13.546;2024-03-02T11:44:49;23.43;;;15.43;;
4420;SDS011;11824;51.178;13.546;2024-03-02T11:47:17;27.73;;;17.80;;
4420;SDS011;11824;51.178;13.546;2024-03-02T11:49:48;26.40;;;15.40;;
4420;SDS011;11824;51.178;13.546;2024-03-02T11:52:18;34.43;;;16.80;;
4420;SDS011;11824;51.178;13.546;2024-03-02T11:54:48;25.87;;;16.60;;
4420;SDS011;11824;51.178;13.546;2024-03-02T11:57:18;36.83;;;18.90;;
4420;SDS011;11824;51.178;13.546;2024-03-02T11:59:50;25.03;;;15.20;;
4420;SDS011;11824;51.178;13.546;2024-03-02T12:02:19;26.97;;;16.23;;
4420;SDS011;11824;51.178;13.546;2024-03-02T12:04:49;24.20;;;14.47;;
4420;SDS011;11824;51.178;13.546;2024-03-02T12:07:18;27.97;;;16.37;;
4420;SDS011;11824;51.178;13.546;2024-03-02T12:09:49;29.63;;;16.60;;
4420;SDS011;11824;51.178;13.546;2024-03-02T12:12:27;33.03;;;13.53;;
4420;SDS011;11824;51.178;13.546;2024-03-02T12:14:57;32.03;;;13.50;;
4420;SDS011;11824;51.178;13.546;2024-03-02T12:17:27;25.13;;;11.77;;
4420;SDS011;11824;51.178;13.546;2024-03-02T12:19:56;25.00;;;12.10;;
4420;SDS011;11824;51.178;13.546;2024-03-02T12:22:25;20.80;;;13.73;;
4420;SDS011;11824;51.178;13.546;2024-03-02T12:24:54;29.90;;;14.47;;
4420;SDS011;11824;51.178;13.546;2024-03-02T12:27:23;27.53;;;15.20;;
4420;SDS011;11824;51.178;13.546;2024-03-02T12:29:52;20.07;;;11.83;;
4420;SDS011;11824;51.178;13.546;2024-03-02T12:32:23;22.83;;;10.80;;
4420;SDS011;11824;51.178;13.546;2024-03-02T12:34:51;22.70;;;10.80;;
4420;SDS011;11824;51.178;13.546;2024-03-02T12:37:21;20.73;;;9.70;;
4420;SDS011;11824;51.178;13.546;2024-03-02T12:39:49;19.43;;;9.03;;
4420;SDS011;11824;51.178;13.546;2024-03-02T12:42:20;18.60;;;10.23;;
4420;SDS011;11824;51.178;13.546;2024-03-02T12:44:49;17.00;;;10.40;;
4420;SDS011;11824;51.178;13.546;2024-03-02T12:47:20;22.27;;;11.33;;
4420;SDS011;11824;51.178;13.546;2024-03-02T12:49:51;22.90;;;11.67;;
4420;SDS011;11824;51.178;13.546;2024-03-02T12:52:20;15.90;;;10.50;;
4420;SDS011;11824;51.178;13.546;2024-03-02T12:54:49;19.73;;;10.93;;
4420;SDS011;11824;51.178;13.546;2024-03-02T12:57:19;15.27;;;10.50;;
4420;SDS011;11824;51.178;13.546;2024-03-02T12:59:48;23.93;;;13.90;;
4420;SDS011;11824;51.178;13.546;2024-03-02T13:02:17;17.07;;;10.20;;
4420;SDS011;11824;51.178;13.546;2024-03-02T13:04:53;20.27;;;10.40;;
4420;SDS011;11824;51.178;13.546;2024-03-02T13:07:22;21.10;;;11.80;;
4420;SDS011;11824;51.178;13.546;2024-03-02T13:09:52;27.47;;;12.30;;
4420;SDS011;11824;51.178;13.546;2024-03-02T13:12:22;20.67;;;13.40;;
4420;SDS011;11824;51.178;13.546;2024-03-02T13:14:52;19.80;;;11.07;;
4420;SDS011;11824;51.178;13.546;2024-03-02T13:17:21;113.20;;;48.27;;
4420;SDS011;11824;51.178;13.546;2024-03-02T13:19:54;31.67;;;15.50;;
4420;SDS011;11824;51.178;13.546;2024-03-02T13:22:24;17.70;;;12.93;;
4420;SDS011;11824;51.178;13.546;2024-03-02T13:24:53;17.13;;;13.53;;
4420;SDS011;11824;51.178;13.546;2024-03-02T13:27:22;18.03;;;12.03;;
4420;SDS011;11824;51.178;13.546;2024-03-02T13:29:51;25.33;;;12.23;;
4420;SDS011;11824;51.178;13.546;2024-03-02T13:32:20;16.10;;;12.60;;
4420;SDS011;11824;51.178;13.546;2024-03-02T13:34:50;25.30;;;14.17;;
4420;SDS011;11824;51.178;13.546;2024-03-02T13:37:21;27.43;;;16.60;;
4420;SDS011;11824;51.178;13.546;2024-03-02T13:39:50;37.37;;;16.17;;
4420;SDS011;11824;51.178;13.546;2024-03-02T13:42:18;31.43;;;16.20;;
4420;SDS011;11824;51.178;13.546;2024-03-02T13:44:48;27.47;;;15.20;;
4420;SDS011;11824;51.178;13.546;2024-03-02T13:47:17;41.37;;;14.97;;
4420;SDS011;11824;51.178;13.546;2024-03-02T13:49:47;24.13;;;15.00;;
4420;SDS011;11824;51.178;13.546;2024-03-02T13:52:16;34.07;;;15.73;;
4420;SDS011;11824;51.178;13.546;2024-03-02T13:54:46;24.90;;;14.70;;
4420;SDS011;11824;51.178;13.546;2024-03-02T13:57:18;32.13;;;17.03;;
4420;SDS011;11824;51.178;13.546;2024-03-02T13:59:52;27.70;;;15.30;;
4420;SDS011;11824;51.178;13.546;2024-03-02T14:02:21;39.13;;;20.03;;
4420;SDS011;11824;51.178;13.546;2024-03-02T14:04:50;45.70;;;25.13;;
4420;SDS011;11824;51.178;13.546;2024-03-02T14:07:19;34.33;;;18.93;;
4420;SDS011;11824;51.178;13.546;2024-03-02T14:09:49;30.87;;;16.07;;
4420;SDS011;11824;51.178;13.546;2024-03-02T14:12:18;33.80;;;19.90;;
4420;SDS011;11824;51.178;13.546;2024-03-02T14:14:46;52.10;;;22.50;;
4420;SDS011;11824;51.178;13.546;2024-03-02T14:17:17;30.70;;;16.60;;
4420;SDS011;11824;51.178;13.546;2024-03-02T14:19:46;34.97;;;16.33;;
4420;SDS011;11824;51.178;13.546;2024-03-02T14:22:14;30.93;;;16.10;;
4420;SDS011;11824;51.178;13.546;2024-03-02T14:24:44;33.47;;;15.87;;
4420;SDS011;11824;51.178;13.546;2024-03-02T14:27:15;31.00;;;16.23;;
4420;SDS011;11824;51.178;13.546;2024-03-02T14:30:03;32.30;;;16.53;;
4420;SDS011;11824;51.178;13.546;2024-03-02T14:32:33;38.70;;;17.37;;
4420;SDS011;11824;51.178;13.546;2024-03-02T14:35:02;34.33;;;17.73;;